createdAt,value
2022-12-31T00:00:05.904Z,10.83
2022-12-31T00:01:05.830Z,10.76
2022-12-31T00:02:05.972Z,10.93
2022-12-31T00:03:05.955Z,10.84
2022-12-31T00:04:06.798Z,10.90
2022-12-31T00:05:05.871Z,10.86
2022-12-31T00:06:05.783Z,10.84
2022-12-31T00:07:05.785Z,10.91
2022-12-31T00:08:05.795Z,10.91
2022-12-31T00:09:05.809Z,10.93
2022-12-31T00:10:05.802Z,10.98
2022-12-31T00:11:05.779Z,10.93
2022-12-31T00:12:05.764Z,10.94
2022-12-31T00:13:05.751Z,10.95
2022-12-31T00:14:05.796Z,10.93
2022-12-31T00:15:05.780Z,10.90
2022-12-31T00:16:11.830Z,10.95
2022-12-31T00:17:07.747Z,11.02
2022-12-31T00:18:05.748Z,10.90
2022-12-31T00:19:05.743Z,11.05
2022-12-31T00:20:05.709Z,11.08
2022-12-31T00:21:05.700Z,11.12
2022-12-31T00:22:05.681Z,10.95
2022-12-31T00:23:05.680Z,11.05
2022-12-31T00:24:05.700Z,11.03
2022-12-31T00:25:05.674Z,11.16
2022-12-31T00:26:05.662Z,11.09
2022-12-31T00:27:05.666Z,11.09
2022-12-31T00:28:05.654Z,11.08
2022-12-31T00:29:05.638Z,11.09
2022-12-31T00:30:05.644Z,11.08
2022-12-31T00:31:05.705Z,11.13
2022-12-31T00:32:05.609Z,11.09
2022-12-31T00:33:05.612Z,11.08
2022-12-31T00:34:05.627Z,11.12
2022-12-31T00:35:05.621Z,11.21
2022-12-31T00:36:05.625Z,11.08
2022-12-31T00:37:05.601Z,11.08
2022-12-31T00:38:05.563Z,11.19
2022-12-31T00:39:05.560Z,11.21
2022-12-31T00:40:05.553Z,11.19
2022-12-31T00:41:05.574Z,11.06
2022-12-31T00:42:05.549Z,11.21
2022-12-31T00:43:05.560Z,11.12
2022-12-31T00:44:05.532Z,11.23
2022-12-31T00:45:05.559Z,11.19
2022-12-31T00:46:05.562Z,11.16
2022-12-31T00:47:05.570Z,11.19
2022-12-31T00:48:05.522Z,11.16
2022-12-31T00:49:05.523Z,11.11
2022-12-31T00:50:05.502Z,11.24
2022-12-31T00:51:05.478Z,11.20
2022-12-31T00:52:05.545Z,11.26
2022-12-31T00:53:05.474Z,11.27
2022-12-31T00:54:05.506Z,11.23
2022-12-31T00:55:05.500Z,11.21
2022-12-31T00:56:05.455Z,11.27
2022-12-31T00:57:05.474Z,11.24
2022-12-31T00:58:05.511Z,11.28
2022-12-31T00:59:05.451Z,11.20
2022-12-31T01:00:05.426Z,11.23
2022-12-31T01:01:05.569Z,11.24
2022-12-31T01:02:05.612Z,11.28
2022-12-31T01:03:05.538Z,11.28
2022-12-31T01:04:05.437Z,11.31
2022-12-31T01:05:05.401Z,11.30
2022-12-31T01:06:05.404Z,11.28
2022-12-31T01:07:06.427Z,11.31
2022-12-31T01:08:05.398Z,11.28
2022-12-31T01:09:05.387Z,11.36
2022-12-31T01:10:05.395Z,11.36
2022-12-31T01:11:05.372Z,11.31
2022-12-31T01:12:05.406Z,11.26
2022-12-31T01:13:05.358Z,11.36
2022-12-31T01:14:05.381Z,11.28
2022-12-31T01:15:05.349Z,11.35
2022-12-31T01:16:05.383Z,11.26
2022-12-31T01:17:05.352Z,11.38
2022-12-31T01:18:05.313Z,11.28
2022-12-31T01:19:05.357Z,11.36
2022-12-31T01:20:05.304Z,11.42
2022-12-31T01:21:05.334Z,11.41
2022-12-31T01:22:05.354Z,11.41
2022-12-31T01:23:05.286Z,11.44
2022-12-31T01:24:05.313Z,11.35
2022-12-31T01:25:05.267Z,11.39
2022-12-31T01:26:05.299Z,11.49
2022-12-31T01:27:05.268Z,11.51
2022-12-31T01:28:05.265Z,11.41
2022-12-31T01:29:05.318Z,11.44
2022-12-31T01:30:05.303Z,11.49
2022-12-31T01:31:05.239Z,11.51
2022-12-31T01:32:05.274Z,11.46
2022-12-31T01:33:05.238Z,11.60
2022-12-31T01:34:05.212Z,11.57
2022-12-31T01:35:05.247Z,11.57
2022-12-31T01:36:05.188Z,11.64
2022-12-31T01:37:05.198Z,11.53
2022-12-31T01:38:05.180Z,11.59
2022-12-31T01:39:05.188Z,11.67
2022-12-31T01:40:05.206Z,11.64
2022-12-31T01:41:05.167Z,11.62
2022-12-31T01:42:05.173Z,11.63
2022-12-31T01:43:05.163Z,11.56
2022-12-31T01:44:05.138Z,11.60
2022-12-31T01:45:05.165Z,11.62
2022-12-31T01:46:05.173Z,11.70
2022-12-31T01:47:05.137Z,11.66
2022-12-31T01:48:05.116Z,11.69
2022-12-31T01:49:05.111Z,11.75
2022-12-31T01:50:05.099Z,11.72
2022-12-31T01:51:05.128Z,11.66
2022-12-31T01:52:05.143Z,11.66
2022-12-31T01:53:05.084Z,11.75
2022-12-31T01:54:05.081Z,11.64
2022-12-31T01:55:05.067Z,11.87
2022-12-31T01:56:05.056Z,11.77
2022-12-31T01:57:05.135Z,11.72
2022-12-31T01:58:05.051Z,11.78
2022-12-31T01:59:05.049Z,11.94
2022-12-31T02:00:05.033Z,11.84
2022-12-31T02:01:05.082Z,11.98
2022-12-31T02:02:05.217Z,11.78
2022-12-31T02:03:05.096Z,11.84
2022-12-31T02:04:05.022Z,11.87
2022-12-31T02:05:05.006Z,11.87
2022-12-31T02:06:05.028Z,11.87
2022-12-31T02:07:05.081Z,11.81
2022-12-31T02:08:05.001Z,11.87
2022-12-31T02:09:04.989Z,11.98
2022-12-31T02:10:04.963Z,11.87
2022-12-31T02:11:04.971Z,11.96
2022-12-31T02:12:04.924Z,12.00
2022-12-31T02:13:05.974Z,11.93
2022-12-31T02:14:04.927Z,11.85
2022-12-31T02:15:04.919Z,11.84
2022-12-31T02:16:04.934Z,11.85
2022-12-31T02:17:04.909Z,11.88
2022-12-31T02:18:04.972Z,12.05
2022-12-31T02:19:04.949Z,12.03
2022-12-31T02:20:04.898Z,12.13
2022-12-31T02:21:04.897Z,12.07
2022-12-31T02:22:04.896Z,12.07
2022-12-31T02:23:04.876Z,12.01
2022-12-31T02:24:04.917Z,12.03
2022-12-31T02:25:04.890Z,12.05
2022-12-31T02:26:04.895Z,11.98
2022-12-31T02:27:04.838Z,12.12
2022-12-31T02:28:05.822Z,12.05
2022-12-31T02:29:04.873Z,12.05
2022-12-31T02:30:04.832Z,12.07
2022-12-31T02:31:04.860Z,12.03
2022-12-31T02:32:04.805Z,12.11
2022-12-31T02:33:04.797Z,12.12
2022-12-31T02:34:04.837Z,12.11
2022-12-31T02:35:04.872Z,12.12
2022-12-31T02:36:04.833Z,12.12
2022-12-31T02:37:04.787Z,12.05
2022-12-31T02:38:04.742Z,12.05
2022-12-31T02:39:04.760Z,12.07
2022-12-31T02:40:04.775Z,12.15
2022-12-31T02:41:04.734Z,12.12
2022-12-31T02:42:04.743Z,12.19
2022-12-31T02:43:04.723Z,12.13
2022-12-31T02:44:04.763Z,12.12
2022-12-31T02:45:04.793Z,12.16
2022-12-31T02:46:04.736Z,12.18
2022-12-31T02:47:04.683Z,12.19
2022-12-31T02:48:04.686Z,12.21
2022-12-31T02:49:04.680Z,12.18
2022-12-31T02:50:04.718Z,12.18
2022-12-31T02:51:04.677Z,12.26
2022-12-31T02:52:04.670Z,12.19
2022-12-31T02:53:04.648Z,12.38
2022-12-31T02:54:04.644Z,12.33
2022-12-31T02:55:04.635Z,12.29
2022-12-31T02:56:04.703Z,12.26
2022-12-31T02:57:04.623Z,12.26
2022-12-31T02:58:04.593Z,12.33
2022-12-31T02:59:04.613Z,12.40
2022-12-31T03:00:04.601Z,12.37
2022-12-31T03:01:04.730Z,12.36
2022-12-31T03:02:04.613Z,12.40
2022-12-31T03:03:04.575Z,12.49
2022-12-31T03:04:04.562Z,12.43
2022-12-31T03:05:04.544Z,12.41
2022-12-31T03:06:04.581Z,12.40
2022-12-31T03:07:04.537Z,12.41
2022-12-31T03:08:04.562Z,12.46
2022-12-31T03:09:04.516Z,12.46
2022-12-31T03:10:04.537Z,12.41
2022-12-31T03:11:04.516Z,12.44
2022-12-31T03:12:04.552Z,12.43
2022-12-31T03:13:04.504Z,12.48
2022-12-31T03:14:04.500Z,12.40
2022-12-31T03:15:04.511Z,12.46
2022-12-31T03:16:04.487Z,12.41
2022-12-31T03:17:04.559Z,12.41
2022-12-31T03:18:04.485Z,12.49
2022-12-31T03:19:04.469Z,12.52
2022-12-31T03:20:04.482Z,12.52
2022-12-31T03:21:05.455Z,12.59
2022-12-31T03:22:04.482Z,12.59
2022-12-31T03:23:04.408Z,12.69
2022-12-31T03:24:04.409Z,12.62
2022-12-31T03:25:04.432Z,12.66
2022-12-31T03:26:04.446Z,12.69
2022-12-31T03:27:04.399Z,12.73
2022-12-31T03:28:04.469Z,12.71
2022-12-31T03:29:04.372Z,12.76
2022-12-31T03:30:04.380Z,12.74
2022-12-31T03:31:04.451Z,12.73
2022-12-31T03:32:04.379Z,12.73
2022-12-31T03:33:04.446Z,12.70
2022-12-31T03:34:04.362Z,12.76
2022-12-31T03:35:04.345Z,12.73
2022-12-31T03:36:04.349Z,12.71
2022-12-31T03:37:04.310Z,12.79
2022-12-31T03:38:04.345Z,12.84
2022-12-31T03:39:04.347Z,12.94
2022-12-31T03:40:04.297Z,12.94
2022-12-31T03:41:04.307Z,12.89
2022-12-31T03:42:04.286Z,13.03
2022-12-31T03:43:04.310Z,12.98
2022-12-31T03:44:04.308Z,12.95
2022-12-31T03:45:04.269Z,13.03
2022-12-31T03:46:04.322Z,13.04
2022-12-31T03:47:04.308Z,12.92
2022-12-31T03:48:04.243Z,13.07
2022-12-31T03:49:04.234Z,13.16
2022-12-31T03:50:04.224Z,13.16
2022-12-31T03:51:04.282Z,13.24
2022-12-31T03:52:04.253Z,13.16
2022-12-31T03:53:04.228Z,13.24
2022-12-31T03:54:04.203Z,13.17
2022-12-31T03:55:04.178Z,13.10
2022-12-31T03:56:04.187Z,13.12
2022-12-31T03:57:04.185Z,13.14
2022-12-31T03:58:04.209Z,13.13
2022-12-31T03:59:04.163Z,13.16
2022-12-31T04:00:04.165Z,13.10
2022-12-31T04:01:04.265Z,13.13
2022-12-31T04:02:04.264Z,13.14
2022-12-31T04:03:04.191Z,13.22
2022-12-31T04:04:04.123Z,13.27
2022-12-31T04:05:04.111Z,13.21
2022-12-31T04:06:04.096Z,13.22
2022-12-31T04:07:04.093Z,13.31
2022-12-31T04:08:04.110Z,13.17
2022-12-31T04:09:04.071Z,13.31
2022-12-31T04:10:04.080Z,13.25
2022-12-31T04:11:04.056Z,13.24
2022-12-31T04:12:04.036Z,13.19
2022-12-31T04:13:04.056Z,13.25
2022-12-31T04:14:04.068Z,13.17
2022-12-31T04:15:04.046Z,13.13
2022-12-31T04:16:04.095Z,13.25
2022-12-31T04:17:04.020Z,13.14
2022-12-31T04:18:04.014Z,13.25
2022-12-31T04:19:03.986Z,13.24
2022-12-31T04:20:04.106Z,13.27
2022-12-31T04:21:04.042Z,13.24
2022-12-31T04:22:03.978Z,13.22
2022-12-31T04:23:03.985Z,13.29
2022-12-31T04:24:03.935Z,13.19
2022-12-31T04:25:03.951Z,13.19
2022-12-31T04:26:03.992Z,13.17
2022-12-31T04:27:07.876Z,13.19
2022-12-31T04:28:04.949Z,13.09
2022-12-31T04:29:04.063Z,13.17
2022-12-31T04:30:03.915Z,13.17
2022-12-31T04:31:03.928Z,13.19
2022-12-31T04:32:03.997Z,13.09
2022-12-31T04:33:03.917Z,13.12
2022-12-31T04:34:03.871Z,13.13
2022-12-31T04:35:03.989Z,13.13
2022-12-31T04:36:03.912Z,13.09
2022-12-31T04:37:03.852Z,13.07
2022-12-31T04:38:03.836Z,13.12
2022-12-31T04:39:03.859Z,13.16
2022-12-31T04:40:06.639Z,13.01
2022-12-31T04:41:04.861Z,12.99
2022-12-31T04:42:03.810Z,12.99
2022-12-31T04:43:03.827Z,13.07
2022-12-31T04:44:03.791Z,12.99
2022-12-31T04:45:03.833Z,13.04
2022-12-31T04:46:04.885Z,13.03
2022-12-31T04:47:03.793Z,13.01
2022-12-31T04:48:03.761Z,13.04
2022-12-31T04:49:03.759Z,12.98
2022-12-31T04:50:03.736Z,13.01
2022-12-31T04:51:03.739Z,13.07
2022-12-31T04:52:03.821Z,12.92
2022-12-31T04:53:03.787Z,12.98
2022-12-31T04:54:03.723Z,12.95
2022-12-31T04:55:03.708Z,13.06
2022-12-31T04:56:03.693Z,12.99
2022-12-31T04:57:04.777Z,12.91
2022-12-31T04:58:03.682Z,12.88
2022-12-31T04:59:03.685Z,12.92
2022-12-31T05:00:03.672Z,12.77
2022-12-31T05:01:03.894Z,12.85
2022-12-31T05:02:03.893Z,12.80
2022-12-31T05:03:03.703Z,12.85
2022-12-31T05:04:03.658Z,12.85
2022-12-31T05:05:03.639Z,12.88
2022-12-31T05:06:03.652Z,12.99
2022-12-31T05:07:03.632Z,12.87
2022-12-31T05:08:03.648Z,12.81
2022-12-31T05:09:03.634Z,12.80
2022-12-31T05:10:03.625Z,12.96
2022-12-31T05:11:03.589Z,12.92
2022-12-31T05:12:03.629Z,12.85
2022-12-31T05:13:03.623Z,12.88
2022-12-31T05:14:03.583Z,12.94
2022-12-31T05:15:03.557Z,12.87
2022-12-31T05:16:03.576Z,12.87
2022-12-31T05:17:03.594Z,12.95
2022-12-31T05:18:03.555Z,12.85
2022-12-31T05:19:03.532Z,12.89
2022-12-31T05:20:03.564Z,12.91
2022-12-31T05:21:03.536Z,12.87
2022-12-31T05:22:03.571Z,12.91
2022-12-31T05:23:03.565Z,13.01
2022-12-31T05:24:03.507Z,12.96
2022-12-31T05:25:03.480Z,13.06
2022-12-31T05:26:03.515Z,12.91
2022-12-31T05:27:03.537Z,12.96
2022-12-31T05:28:03.474Z,12.88
2022-12-31T05:29:03.522Z,12.84
2022-12-31T05:30:03.462Z,12.91
2022-12-31T05:31:03.503Z,12.89
2022-12-31T05:32:03.426Z,12.92
2022-12-31T05:33:03.445Z,12.84
2022-12-31T05:34:03.459Z,12.89
2022-12-31T05:35:03.420Z,12.91
2022-12-31T05:36:03.418Z,12.88
2022-12-31T05:37:03.413Z,12.84
2022-12-31T05:38:03.403Z,12.92
2022-12-31T05:39:03.427Z,12.94
2022-12-31T05:40:03.436Z,12.96
2022-12-31T05:41:03.528Z,13.13
2022-12-31T05:42:03.385Z,12.99
2022-12-31T05:43:03.358Z,13.07
2022-12-31T05:44:03.354Z,13.09
2022-12-31T05:45:03.361Z,13.13
2022-12-31T05:46:03.340Z,13.12
2022-12-31T05:47:03.332Z,13.16
2022-12-31T05:48:03.316Z,13.28
2022-12-31T05:49:03.313Z,13.21
2022-12-31T05:50:03.361Z,13.12
2022-12-31T05:51:03.302Z,13.21
2022-12-31T05:52:03.293Z,13.28
2022-12-31T05:53:03.288Z,13.21
2022-12-31T05:54:03.260Z,13.16
2022-12-31T05:55:03.316Z,13.24
2022-12-31T05:56:03.246Z,13.35
2022-12-31T05:57:03.255Z,13.21
2022-12-31T05:58:03.266Z,13.22
2022-12-31T05:59:03.215Z,13.36
2022-12-31T06:00:03.286Z,13.36
2022-12-31T06:01:03.288Z,13.32
2022-12-31T06:02:03.245Z,13.36
2022-12-31T06:03:03.301Z,13.35
2022-12-31T06:04:03.307Z,13.41
2022-12-31T06:05:03.188Z,13.44
2022-12-31T06:06:03.170Z,13.39
2022-12-31T06:07:03.200Z,13.39
2022-12-31T06:08:03.164Z,13.48
2022-12-31T06:09:03.152Z,13.46
2022-12-31T06:10:03.157Z,13.50
2022-12-31T06:11:03.152Z,13.48
2022-12-31T06:12:03.291Z,13.50
2022-12-31T06:13:03.160Z,13.59
2022-12-31T06:14:03.111Z,13.54
2022-12-31T06:15:03.118Z,13.55
2022-12-31T06:16:03.240Z,13.63
2022-12-31T06:17:03.076Z,13.66
2022-12-31T06:18:03.142Z,13.57
2022-12-31T06:19:03.113Z,13.63
2022-12-31T06:20:06.101Z,13.66
2022-12-31T06:21:05.040Z,13.61
2022-12-31T06:22:03.048Z,13.65
2022-12-31T06:23:03.078Z,13.65
2022-12-31T06:24:03.053Z,13.68
2022-12-31T06:25:03.029Z,13.61
2022-12-31T06:26:03.020Z,13.54
2022-12-31T06:27:02.995Z,13.54
2022-12-31T06:28:03.085Z,13.59
2022-12-31T06:29:02.983Z,13.62
2022-12-31T06:30:02.982Z,13.54
2022-12-31T06:31:03.004Z,13.55
2022-12-31T06:32:03.003Z,13.63
2022-12-31T06:33:03.044Z,13.68
2022-12-31T06:34:02.997Z,13.66
2022-12-31T06:35:03.010Z,13.59
2022-12-31T06:36:02.915Z,13.54
2022-12-31T06:37:02.952Z,13.63
2022-12-31T06:38:02.950Z,13.66
2022-12-31T06:39:03.082Z,13.63
2022-12-31T06:40:02.946Z,13.68
2022-12-31T06:41:02.902Z,13.71
2022-12-31T06:42:02.888Z,13.66
2022-12-31T06:43:02.908Z,13.69
2022-12-31T06:44:02.924Z,13.59
2022-12-31T06:45:02.897Z,13.69
2022-12-31T06:46:02.916Z,13.57
2022-12-31T06:47:02.887Z,13.75
2022-12-31T06:48:02.846Z,13.62
2022-12-31T06:49:02.830Z,13.65
2022-12-31T06:50:02.876Z,13.63
2022-12-31T06:51:02.843Z,13.69
2022-12-31T06:52:02.838Z,13.73
2022-12-31T06:53:02.800Z,13.68
2022-12-31T06:54:02.780Z,13.65
2022-12-31T06:55:02.841Z,13.62
2022-12-31T06:56:02.824Z,13.54
2022-12-31T06:57:02.863Z,13.66
2022-12-31T06:58:02.740Z,13.65
2022-12-31T06:59:02.847Z,13.72
2022-12-31T07:00:02.778Z,13.63
2022-12-31T07:01:02.825Z,13.71
2022-12-31T07:02:02.875Z,13.68
2022-12-31T07:03:02.842Z,13.66
2022-12-31T07:04:02.835Z,13.72
2022-12-31T07:05:02.776Z,13.79
2022-12-31T07:06:02.700Z,13.63
2022-12-31T07:07:02.723Z,13.79
2022-12-31T07:08:02.693Z,13.81
2022-12-31T07:09:02.682Z,13.81
2022-12-31T07:10:02.742Z,13.83
2022-12-31T07:11:02.662Z,13.83
2022-12-31T07:12:02.669Z,13.87
2022-12-31T07:13:02.663Z,13.84
2022-12-31T07:14:02.637Z,13.91
2022-12-31T07:15:02.681Z,13.86
2022-12-31T07:16:02.674Z,13.83
2022-12-31T07:17:02.621Z,13.93
2022-12-31T07:18:02.611Z,13.99
2022-12-31T07:19:02.597Z,14.02
2022-12-31T07:20:02.634Z,13.94
2022-12-31T07:21:02.664Z,13.93
2022-12-31T07:22:02.583Z,13.91
2022-12-31T07:23:02.603Z,13.93
2022-12-31T07:24:02.588Z,13.91
2022-12-31T07:25:02.584Z,14.04
2022-12-31T07:26:02.578Z,13.91
2022-12-31T07:27:02.540Z,13.99
2022-12-31T07:28:02.641Z,13.99
2022-12-31T07:29:02.557Z,13.94
2022-12-31T07:30:02.546Z,13.99
2022-12-31T07:31:02.576Z,13.90
2022-12-31T07:32:02.519Z,13.98
2022-12-31T07:33:02.539Z,13.96
2022-12-31T07:34:02.492Z,13.90
2022-12-31T07:35:02.608Z,14.01
2022-12-31T07:36:02.528Z,14.11
2022-12-31T07:37:02.567Z,13.99
2022-12-31T07:38:02.510Z,14.02
2022-12-31T07:39:02.436Z,14.05
2022-12-31T07:40:02.433Z,13.96
2022-12-31T07:41:07.423Z,14.01
2022-12-31T07:42:04.500Z,14.09
2022-12-31T07:43:02.419Z,14.01
2022-12-31T07:44:02.486Z,13.99
2022-12-31T07:45:02.420Z,14.08
2022-12-31T07:46:02.391Z,14.12
2022-12-31T07:47:02.408Z,14.12
2022-12-31T07:48:03.075Z,14.05
2022-12-31T07:49:03.429Z,14.13
2022-12-31T07:50:02.389Z,14.13
2022-12-31T07:51:02.411Z,14.23
2022-12-31T07:52:02.361Z,14.13
2022-12-31T07:53:02.406Z,14.13
2022-12-31T07:54:02.329Z,14.20
2022-12-31T07:55:02.334Z,14.11
2022-12-31T07:56:02.393Z,14.11
2022-12-31T07:57:02.333Z,14.16
2022-12-31T07:58:02.321Z,14.26
2022-12-31T07:59:02.450Z,14.17
2022-12-31T08:00:02.361Z,14.20
2022-12-31T08:01:02.359Z,14.19
2022-12-31T08:02:02.460Z,14.24
2022-12-31T08:03:02.475Z,14.26
2022-12-31T08:04:02.274Z,14.24
2022-12-31T08:05:02.282Z,14.23
2022-12-31T08:06:02.244Z,14.23
2022-12-31T08:07:02.240Z,14.29
2022-12-31T08:08:02.290Z,14.27
2022-12-31T08:09:02.220Z,14.39
2022-12-31T08:10:02.257Z,14.45
2022-12-31T08:11:02.217Z,14.38
2022-12-31T08:12:02.212Z,14.45
2022-12-31T08:13:02.279Z,14.52
2022-12-31T08:14:02.209Z,14.57
2022-12-31T08:15:02.176Z,14.53
2022-12-31T08:16:02.357Z,14.56
2022-12-31T08:17:02.175Z,14.54
2022-12-31T08:18:02.194Z,14.64
2022-12-31T08:19:02.303Z,14.56
2022-12-31T08:20:02.278Z,14.56
2022-12-31T08:21:02.121Z,14.71
2022-12-31T08:22:02.134Z,14.60
2022-12-31T08:23:02.114Z,14.74
2022-12-31T08:24:02.172Z,14.69
2022-12-31T08:25:02.111Z,14.67
2022-12-31T08:26:02.145Z,14.67
2022-12-31T08:27:02.073Z,14.74
2022-12-31T08:28:02.070Z,14.79
2022-12-31T08:29:02.116Z,14.71
2022-12-31T08:30:02.128Z,14.82
2022-12-31T08:31:02.122Z,14.80
2022-12-31T08:32:02.125Z,14.85
2022-12-31T08:33:02.047Z,14.82
2022-12-31T08:34:05.749Z,14.79
2022-12-31T08:35:03.038Z,14.93
2022-12-31T08:36:02.063Z,14.90
2022-12-31T08:37:02.025Z,14.93
2022-12-31T08:38:02.053Z,14.90
2022-12-31T08:39:01.985Z,14.90
2022-12-31T08:40:02.012Z,14.85
2022-12-31T08:41:01.981Z,14.86
2022-12-31T08:42:01.978Z,14.94
2022-12-31T08:43:01.947Z,14.95
2022-12-31T08:44:01.966Z,14.86
2022-12-31T08:45:02.005Z,14.97
2022-12-31T08:46:02.076Z,15.00
2022-12-31T08:47:01.966Z,14.95
2022-12-31T08:48:01.929Z,14.91
2022-12-31T08:49:01.929Z,14.90
2022-12-31T08:50:01.986Z,14.94
2022-12-31T08:51:01.938Z,14.95
2022-12-31T08:52:01.909Z,14.87
2022-12-31T08:53:01.911Z,15.07
2022-12-31T08:54:01.914Z,14.93
2022-12-31T08:55:01.890Z,15.04
2022-12-31T08:56:01.875Z,14.97
2022-12-31T08:57:01.866Z,15.00
2022-12-31T08:58:01.901Z,15.03
2022-12-31T08:59:01.860Z,15.07
2022-12-31T09:00:01.861Z,15.03
2022-12-31T09:01:01.951Z,15.07
2022-12-31T09:02:01.877Z,14.95
2022-12-31T09:03:01.837Z,15.09
2022-12-31T09:04:01.872Z,15.01
2022-12-31T09:05:01.801Z,14.91
2022-12-31T09:06:01.785Z,14.98
2022-12-31T09:07:01.798Z,14.87
2022-12-31T09:08:01.774Z,14.87
2022-12-31T09:09:01.825Z,14.83
2022-12-31T09:10:01.916Z,14.78
2022-12-31T09:11:01.756Z,14.69
2022-12-31T09:12:01.775Z,14.64
2022-12-31T09:13:01.784Z,14.64
2022-12-31T09:14:01.801Z,14.54
2022-12-31T09:15:01.720Z,14.59
2022-12-31T09:16:01.799Z,14.49
2022-12-31T09:17:01.750Z,14.44
2022-12-31T09:18:01.729Z,14.35
2022-12-31T09:19:02.112Z,14.26
2022-12-31T09:20:01.776Z,14.35
2022-12-31T09:21:01.690Z,14.35
2022-12-31T09:22:01.733Z,14.19
2022-12-31T09:23:01.685Z,14.26
2022-12-31T09:24:06.030Z,14.20
2022-12-31T09:25:03.726Z,14.27
2022-12-31T09:26:01.694Z,14.26
2022-12-31T09:27:01.644Z,14.35
2022-12-31T09:28:01.663Z,14.23
2022-12-31T09:29:01.691Z,14.30
2022-12-31T09:30:01.655Z,14.26
2022-12-31T09:31:01.628Z,14.29
2022-12-31T09:32:01.669Z,14.38
2022-12-31T09:33:01.791Z,14.35
2022-12-31T09:34:01.585Z,14.42
2022-12-31T09:35:01.600Z,14.39
2022-12-31T09:36:01.551Z,14.56
2022-12-31T09:37:01.555Z,14.49
2022-12-31T09:38:05.239Z,14.57
2022-12-31T09:39:02.536Z,14.52
2022-12-31T09:40:01.567Z,14.60
2022-12-31T09:41:01.584Z,14.57
2022-12-31T09:42:01.604Z,14.49
2022-12-31T09:43:01.507Z,14.56
2022-12-31T09:44:01.683Z,14.52
2022-12-31T09:45:01.542Z,14.49
2022-12-31T09:46:01.494Z,14.48
2022-12-31T09:47:01.494Z,14.61
2022-12-31T09:48:01.486Z,14.57
2022-12-31T09:49:01.470Z,14.54
2022-12-31T09:50:01.472Z,14.60
2022-12-31T09:51:01.446Z,14.53
2022-12-31T09:52:01.435Z,14.61
2022-12-31T09:53:01.509Z,14.61
2022-12-31T09:54:01.450Z,14.53
2022-12-31T09:55:01.457Z,14.60
2022-12-31T09:56:01.426Z,14.60
2022-12-31T09:57:01.418Z,14.64
2022-12-31T09:58:01.462Z,14.57
2022-12-31T09:59:01.402Z,14.59
2022-12-31T10:00:01.386Z,14.66
2022-12-31T10:01:01.509Z,14.57
2022-12-31T10:02:01.596Z,14.52
2022-12-31T10:03:01.468Z,14.56
2022-12-31T10:04:01.391Z,14.52
2022-12-31T10:05:01.401Z,14.59
2022-12-31T10:06:01.366Z,14.52
2022-12-31T10:07:01.338Z,14.48
2022-12-31T10:08:01.439Z,14.56
2022-12-31T10:09:01.345Z,14.59
2022-12-31T10:10:01.331Z,14.61
2022-12-31T10:11:01.304Z,14.66
2022-12-31T10:12:01.320Z,14.64
2022-12-31T10:13:01.434Z,14.67
2022-12-31T10:14:01.280Z,14.64
2022-12-31T10:15:01.281Z,14.71
2022-12-31T10:16:01.326Z,14.66
2022-12-31T10:17:01.311Z,14.75
2022-12-31T10:18:01.345Z,14.66
2022-12-31T10:19:01.347Z,14.78
2022-12-31T10:20:01.265Z,14.69
2022-12-31T10:21:01.228Z,14.78
2022-12-31T10:22:01.245Z,14.78
2022-12-31T10:23:01.214Z,14.83
2022-12-31T10:24:01.218Z,14.78
2022-12-31T10:25:01.640Z,14.74
2022-12-31T10:26:01.189Z,14.83
2022-12-31T10:27:01.214Z,14.75
2022-12-31T10:28:01.148Z,14.83
2022-12-31T10:29:01.161Z,14.82
2022-12-31T10:30:01.204Z,14.79
2022-12-31T10:31:01.192Z,14.83
2022-12-31T10:32:01.150Z,14.80
2022-12-31T10:33:01.130Z,14.86
2022-12-31T10:34:01.121Z,14.90
2022-12-31T10:35:01.177Z,14.94
2022-12-31T10:36:01.125Z,14.98
2022-12-31T10:37:01.106Z,15.03
2022-12-31T10:38:01.136Z,15.13
2022-12-31T10:39:01.147Z,15.11
2022-12-31T10:40:01.159Z,15.11
2022-12-31T10:41:01.068Z,15.19
2022-12-31T10:42:01.084Z,15.27
2022-12-31T10:43:01.097Z,15.28
2022-12-31T10:44:01.126Z,15.30
2022-12-31T10:45:01.037Z,15.30
2022-12-31T10:46:01.095Z,15.22
2022-12-31T10:47:01.086Z,15.35
2022-12-31T10:48:01.087Z,15.40
2022-12-31T10:49:01.025Z,15.51
2022-12-31T10:50:01.032Z,15.46
2022-12-31T10:51:01.007Z,15.58
2022-12-31T10:52:00.999Z,15.62
2022-12-31T10:53:01.083Z,15.66
2022-12-31T10:54:01.111Z,15.60
2022-12-31T10:55:00.993Z,15.76
2022-12-31T10:56:00.994Z,15.73
2022-12-31T10:57:00.995Z,15.85
2022-12-31T10:58:04.338Z,15.89
2022-12-31T10:59:01.930Z,15.89
2022-12-31T11:00:00.927Z,15.96
2022-12-31T11:01:01.100Z,16.01
2022-12-31T11:02:01.029Z,15.99
2022-12-31T11:03:00.971Z,16.07
2022-12-31T11:04:01.006Z,16.04
2022-12-31T11:05:00.900Z,16.13
2022-12-31T11:06:00.913Z,16.18
2022-12-31T11:07:01.133Z,16.17
2022-12-31T11:08:00.900Z,16.22
2022-12-31T11:09:00.952Z,16.13
2022-12-31T11:10:01.003Z,16.01
2022-12-31T11:11:00.987Z,16.16
2022-12-31T11:12:00.849Z,16.17
2022-12-31T11:13:00.832Z,16.08
2022-12-31T11:14:00.833Z,16.06
2022-12-31T11:15:00.878Z,16.04
2022-12-31T11:16:00.865Z,16.08
2022-12-31T11:17:00.814Z,15.99
2022-12-31T11:18:00.813Z,16.06
2022-12-31T11:19:00.847Z,16.06
2022-12-31T11:20:00.815Z,16.04
2022-12-31T11:21:00.884Z,15.98
2022-12-31T11:22:00.807Z,16.06
2022-12-31T11:23:00.765Z,15.95
2022-12-31T11:24:00.755Z,16.04
2022-12-31T11:25:01.986Z,16.10
2022-12-31T11:26:00.745Z,16.11
2022-12-31T11:27:00.776Z,16.10
2022-12-31T11:28:00.824Z,16.14
2022-12-31T11:29:00.719Z,16.13
2022-12-31T11:30:00.713Z,16.18
2022-12-31T11:31:00.734Z,16.25
2022-12-31T11:32:00.718Z,16.18
2022-12-31T11:33:00.705Z,16.23
2022-12-31T11:34:00.731Z,16.22
2022-12-31T11:35:00.727Z,16.18
2022-12-31T11:36:00.677Z,16.16
2022-12-31T11:37:00.741Z,16.10
2022-12-31T11:38:00.664Z,16.14
2022-12-31T11:39:00.668Z,16.22
2022-12-31T11:40:00.627Z,16.29
2022-12-31T11:41:00.634Z,16.18
2022-12-31T11:42:00.660Z,16.32
2022-12-31T11:43:00.654Z,16.27
2022-12-31T11:44:00.611Z,16.32
2022-12-31T11:45:00.619Z,16.16
2022-12-31T11:46:00.678Z,16.14
2022-12-31T11:47:00.659Z,16.16
2022-12-31T11:49:02.587Z,16.42
2022-12-31T11:50:00.626Z,16.25
2022-12-31T11:51:00.618Z,16.29
2022-12-31T11:52:00.556Z,16.40
2022-12-31T11:53:00.621Z,16.44
2022-12-31T11:54:00.552Z,16.52
2022-12-31T11:55:00.708Z,16.57
2022-12-31T11:56:00.546Z,16.45
2022-12-31T11:57:00.593Z,16.52
2022-12-31T11:58:00.564Z,16.54
2022-12-31T11:59:04.758Z,16.51
2022-12-31T12:00:01.527Z,16.52
2022-12-31T12:01:00.548Z,16.57
2022-12-31T12:02:00.494Z,16.63
2022-12-31T12:03:00.520Z,16.59
2022-12-31T12:04:00.598Z,16.51
2022-12-31T12:05:03.846Z,16.66
2022-12-31T12:06:01.604Z,16.66
2022-12-31T12:07:00.855Z,16.70
2022-12-31T12:08:00.448Z,16.67
2022-12-31T12:09:00.442Z,16.67
2022-12-31T12:10:00.480Z,16.66
2022-12-31T12:11:00.437Z,16.69
2022-12-31T12:12:00.433Z,16.67
2022-12-31T12:13:00.476Z,16.66
2022-12-31T12:14:00.448Z,16.62
2022-12-31T12:15:00.449Z,16.66
2022-12-31T12:16:00.521Z,16.59
2022-12-31T12:17:04.693Z,16.65
2022-12-31T12:18:02.408Z,16.66
2022-12-31T12:19:00.387Z,16.60
2022-12-31T12:20:00.445Z,16.72
2022-12-31T12:21:00.408Z,16.60
2022-12-31T12:22:01.356Z,16.57
2022-12-31T12:23:00.373Z,16.65
2022-12-31T12:24:00.467Z,16.55
2022-12-31T12:25:00.335Z,16.70
2022-12-31T12:26:00.439Z,16.59
2022-12-31T12:27:00.340Z,16.67
2022-12-31T12:28:00.324Z,16.60
2022-12-31T12:29:00.323Z,16.66
2022-12-31T12:30:00.341Z,16.59
2022-12-31T12:31:00.441Z,16.62
2022-12-31T12:32:00.340Z,16.52
2022-12-31T12:33:00.262Z,16.57
2022-12-31T12:34:01.297Z,16.55
2022-12-31T12:35:00.267Z,16.57
2022-12-31T12:36:00.284Z,16.65
2022-12-31T12:37:00.340Z,16.52
2022-12-31T12:38:00.281Z,16.60
2022-12-31T12:39:00.271Z,16.59
2022-12-31T12:40:00.265Z,16.59
2022-12-31T12:41:00.240Z,16.62
2022-12-31T12:42:00.326Z,16.52
2022-12-31T12:43:00.247Z,16.62
2022-12-31T12:44:00.221Z,16.77
2022-12-31T12:45:00.209Z,16.72
2022-12-31T12:46:00.219Z,16.77
2022-12-31T12:47:00.365Z,16.87
2022-12-31T12:48:00.231Z,16.77
2022-12-31T12:49:00.200Z,16.82
2022-12-31T12:50:00.261Z,16.84
2022-12-31T12:51:00.188Z,16.70
2022-12-31T12:52:00.156Z,16.81
2022-12-31T12:53:00.242Z,16.78